sensor_id;sensor_type;location;lat;lon;timestamp;temperature;humidity
8539;DHT22;4307;53.868;11.680;2022-09-25T00:00:54;13.60;99.90
8539;DHT22;4307;53.868;11.680;2022-09-25T00:03:23;13.60;99.90
8539;DHT22;4307;53.868;11.680;2022-09-25T00:05:50;13.70;99.90
8539;DHT22;4307;53.868;11.680;2022-09-25T00:08:19;13.70;99.90
8539;DHT22;4307;53.868;11.680;2022-09-25T00:10:47;13.70;99.90
8539;DHT22;4307;53.868;11.680;2022-09-25T00:13:15;13.70;99.90
8539;DHT22;4307;53.868;11.680;2022-09-25T00:15:46;13.70;99.90
8539;DHT22;4307;53.868;11.680;2022-09-25T00:18:13;13.80;99.90
8539;DHT22;4307;53.868;11.680;2022-09-25T00:20:40;13.70;99.90
8539;DHT22;4307;53.868;11.680;2022-09-25T00:23:06;13.80;99.90
8539;DHT22;4307;53.868;11.680;2022-09-25T00:25:34;13.80;99.90
8539;DHT22;4307;53.868;11.680;2022-09-25T00:28:01;13.80;99.90
8539;DHT22;4307;53.868;11.680;2022-09-25T00:30:28;13.70;99.90
8539;DHT22;4307;53.868;11.680;2022-09-25T00:32:54;13.70;99.90
8539;DHT22;4307;53.868;11.680;2022-09-25T00:35:21;13.70;99.90
8539;DHT22;4307;53.868;11.680;2022-09-25T00:37:48;13.60;99.90
8539;DHT22;4307;53.868;11.680;2022-09-25T00:40:14;13.60;99.90
8539;DHT22;4307;53.868;11.680;2022-09-25T00:42:42;13.50;99.90
8539;DHT22;4307;53.868;11.680;2022-09-25T00:45:15;13.50;99.90
8539;DHT22;4307;53.868;11.680;2022-09-25T00:47:47;13.40;99.90
8539;DHT22;4307;53.868;11.680;2022-09-25T00:50:23;13.40;99.90
8539;DHT22;4307;53.868;11.680;2022-09-25T00:52:51;13.40;99.90
8539;DHT22;4307;53.868;11.680;2022-09-25T00:55:20;13.40;99.90
8539;DHT22;4307;53.868;11.680;2022-09-25T00:57:52;13.40;99.90
8539;DHT22;4307;53.868;11.680;2022-09-25T01:00:20;13.30;99.90
8539;DHT22;4307;53.868;11.680;2022-09-25T01:02:52;13.30;99.90
8539;DHT22;4307;53.868;11.680;2022-09-25T01:05:22;13.30;99.90
8539;DHT22;4307;53.868;11.680;2022-09-25T01:07:50;13.30;99.90
8539;DHT22;4307;53.868;11.680;2022-09-25T01:10:19;13.30;99.90
8539;DHT22;4307;53.868;11.680;2022-09-25T01:12:49;13.30;99.90
8539;DHT22;4307;53.868;11.680;2022-09-25T01:15:18;13.30;99.90
8539;DHT22;4307;53.868;11.680;2022-09-25T01:17:54;13.20;99.90
8539;DHT22;4307;53.868;11.680;2022-09-25T01:23:19;13.20;99.90
8539;DHT22;4307;53.868;11.680;2022-09-25T01:26:03;13.20;99.90
8539;DHT22;4307;53.868;11.680;2022-09-25T01:29:04;13.20;99.90
8539;DHT22;4307;53.868;11.680;2022-09-25T01:31:37;13.20;99.90
8539;DHT22;4307;53.868;11.680;2022-09-25T01:34:12;13.20;99.90
8539;DHT22;4307;53.868;11.680;2022-09-25T01:36:45;13.20;99.90
8539;DHT22;4307;53.868;11.680;2022-09-25T01:39:18;13.20;99.90
8539;DHT22;4307;53.868;11.680;2022-09-25T01:41:50;13.30;99.90
8539;DHT22;4307;53.868;11.680;2022-09-25T01:44:22;13.30;99.90
8539;DHT22;4307;53.868;11.680;2022-09-25T01:46:53;13.30;99.90
8539;DHT22;4307;53.868;11.680;2022-09-25T01:49:24;13.30;99.90
8539;DHT22;4307;53.868;11.680;2022-09-25T01:51:53;13.40;99.90
8539;DHT22;4307;53.868;11.680;2022-09-25T01:54:23;13.40;99.90
8539;DHT22;4307;53.868;11.680;2022-09-25T01:56:56;13.40;99.90
8539;DHT22;4307;53.868;11.680;2022-09-25T01:59:29;13.50;99.90
8539;DHT22;4307;53.868;11.680;2022-09-25T02:02:00;13.50;99.90
8539;DHT22;4307;53.868;11.680;2022-09-25T02:04:33;13.60;99.90
8539;DHT22;4307;53.868;11.680;2022-09-25T02:07:03;13.60;99.90
8539;DHT22;4307;53.868;11.680;2022-09-25T02:09:36;13.70;99.90
8539;DHT22;4307;53.868;11.680;2022-09-25T02:12:08;13.70;99.90
8539;DHT22;4307;53.868;11.680;2022-09-25T02:14:40;13.70;99.90
8539;DHT22;4307;53.868;11.680;2022-09-25T02:17:12;13.70;99.90
8539;DHT22;4307;53.868;11.680;2022-09-25T02:20:01;13.70;99.90
8539;DHT22;4307;53.868;11.680;2022-09-25T02:22:46;13.60;99.90
8539;DHT22;4307;53.868;11.680;2022-09-25T02:25:17;13.60;99.90
8539;DHT22;4307;53.868;11.680;2022-09-25T02:27:45;13.60;99.90
8539;DHT22;4307;53.868;11.680;2022-09-25T02:30:14;13.60;99.90
8539;DHT22;4307;53.868;11.680;2022-09-25T02:32:41;13.70;99.90
8539;DHT22;4307;53.868;11.680;2022-09-25T02:35:08;13.70;99.90
8539;DHT22;4307;53.868;11.680;2022-09-25T02:37:36;13.70;99.90
8539;DHT22;4307;53.868;11.680;2022-09-25T02:40:03;13.70;99.90
8539;DHT22;4307;53.868;11.680;2022-09-25T02:42:35;13.80;99.90
8539;DHT22;4307;53.868;11.680;2022-09-25T02:45:09;13.80;99.90
8539;DHT22;4307;53.868;11.680;2022-09-25T02:47:47;13.80;99.90
8539;DHT22;4307;53.868;11.680;2022-09-25T02:50:22;13.90;99.90
8539;DHT22;4307;53.868;11.680;2022-09-25T02:52:58;13.90;99.90
8539;DHT22;4307;53.868;11.680;2022-09-25T02:55:32;13.90;99.90
8539;DHT22;4307;53.868;11.680;2022-09-25T02:58:03;13.80;99.90
8539;DHT22;4307;53.868;11.680;2022-09-25T03:00:34;13.70;99.90
8539;DHT22;4307;53.868;11.680;2022-09-25T03:03:03;13.60;99.90
8539;DHT22;4307;53.868;11.680;2022-09-25T03:05:32;13.50;99.90
8539;DHT22;4307;53.868;11.680;2022-09-25T03:08:00;13.50;99.90
8539;DHT22;4307;53.868;11.680;2022-09-25T03:10:44;13.40;99.90
8539;DHT22;4307;53.868;11.680;2022-09-25T03:13:15;13.30;99.90
8539;DHT22;4307;53.868;11.680;2022-09-25T03:15:44;13.30;99.90
8539;DHT22;4307;53.868;11.680;2022-09-25T03:18:13;13.30;99.90
8539;DHT22;4307;53.868;11.680;2022-09-25T03:20:40;13.20;99.90
8539;DHT22;4307;53.868;11.680;2022-09-25T03:23:07;13.10;99.90
8539;DHT22;4307;53.868;11.680;2022-09-25T03:25:35;13.10;99.90
8539;DHT22;4307;53.868;11.680;2022-09-25T03:28:01;13.10;99.90
8539;DHT22;4307;53.868;11.680;2022-09-25T03:30:28;13.10;99.90
8539;DHT22;4307;53.868;11.680;2022-09-25T03:32:55;13.00;99.90
8539;DHT22;4307;53.868;11.680;2022-09-25T03:35:23;13.00;99.90
8539;DHT22;4307;53.868;11.680;2022-09-25T03:37:50;13.00;99.90
8539;DHT22;4307;53.868;11.680;2022-09-25T03:40:16;13.00;99.90
8539;DHT22;4307;53.868;11.680;2022-09-25T03:42:43;13.00;99.90
8539;DHT22;4307;53.868;11.680;2022-09-25T03:45:10;13.10;99.90
8539;DHT22;4307;53.868;11.680;2022-09-25T03:47:36;13.10;99.90
8539;DHT22;4307;53.868;11.680;2022-09-25T03:50:04;13.10;99.90
8539;DHT22;4307;53.868;11.680;2022-09-25T03:52:34;13.20;99.90
8539;DHT22;4307;53.868;11.680;2022-09-25T03:55:00;13.20;99.90
8539;DHT22;4307;53.868;11.680;2022-09-25T03:57:27;13.20;99.90
8539;DHT22;4307;53.868;11.680;2022-09-25T03:59:55;13.20;99.90
8539;DHT22;4307;53.868;11.680;2022-09-25T04:02:25;13.20;99.90
8539;DHT22;4307;53.868;11.680;2022-09-25T04:04:52;13.20;99.90
8539;DHT22;4307;53.868;11.680;2022-09-25T04:07:19;13.30;99.90
8539;DHT22;4307;53.868;11.680;2022-09-25T04:09:47;13.30;99.90
8539;DHT22;4307;53.868;11.680;2022-09-25T04:12:14;13.30;99.90
8539;DHT22;4307;53.868;11.680;2022-09-25T04:14:41;13.30;99.90
8539;DHT22;4307;53.868;11.680;2022-09-25T04:17:11;13.30;99.90
8539;DHT22;4307;53.868;11.680;2022-09-25T04:19:37;13.40;99.90
8539;DHT22;4307;53.868;11.680;2022-09-25T04:22:04;13.40;99.90
8539;DHT22;4307;53.868;11.680;2022-09-25T04:24:31;13.50;99.90
8539;DHT22;4307;53.868;11.680;2022-09-25T04:27:19;13.50;99.90
8539;DHT22;4307;53.868;11.680;2022-09-25T04:29:47;13.50;99.90
8539;DHT22;4307;53.868;11.680;2022-09-25T04:32:15;13.50;99.90
8539;DHT22;4307;53.868;11.680;2022-09-25T04:35:00;13.60;99.90
8539;DHT22;4307;53.868;11.680;2022-09-25T04:37:26;13.50;99.90
8539;DHT22;4307;53.868;11.680;2022-09-25T04:39:54;13.50;99.90
8539;DHT22;4307;53.868;11.680;2022-09-25T04:42:22;13.50;99.90
8539;DHT22;4307;53.868;11.680;2022-09-25T04:44:50;13.50;99.90
8539;DHT22;4307;53.868;11.680;2022-09-25T04:47:18;13.60;99.90
8539;DHT22;4307;53.868;11.680;2022-09-25T04:49:45;13.60;99.90
8539;DHT22;4307;53.868;11.680;2022-09-25T04:52:12;13.50;99.90
8539;DHT22;4307;53.868;11.680;2022-09-25T04:54:39;13.50;99.90
8539;DHT22;4307;53.868;11.680;2022-09-25T04:57:06;13.50;99.90
8539;DHT22;4307;53.868;11.680;2022-09-25T04:59:34;13.50;99.90
8539;DHT22;4307;53.868;11.680;2022-09-25T05:02:00;13.50;99.90
8539;DHT22;4307;53.868;11.680;2022-09-25T05:04:27;13.50;99.90
8539;DHT22;4307;53.868;11.680;2022-09-25T05:06:54;13.50;99.90
8539;DHT22;4307;53.868;11.680;2022-09-25T05:09:20;13.40;99.90
8539;DHT22;4307;53.868;11.680;2022-09-25T05:11:47;13.40;99.90
8539;DHT22;4307;53.868;11.680;2022-09-25T05:14:13;13.40;99.90
8539;DHT22;4307;53.868;11.680;2022-09-25T05:16:42;13.40;99.90
8539;DHT22;4307;53.868;11.680;2022-09-25T05:19:08;13.40;99.90
8539;DHT22;4307;53.868;11.680;2022-09-25T05:21:35;13.40;99.90
8539;DHT22;4307;53.868;11.680;2022-09-25T05:24:02;13.40;99.90
8539;DHT22;4307;53.868;11.680;2022-09-25T05:26:29;13.40;99.90
8539;DHT22;4307;53.868;11.680;2022-09-25T05:28:58;13.30;99.90
8539;DHT22;4307;53.868;11.680;2022-09-25T05:31:26;13.30;99.90
8539;DHT22;4307;53.868;11.680;2022-09-25T05:33:54;13.30;99.90
8539;DHT22;4307;53.868;11.680;2022-09-25T05:36:21;13.30;99.90
8539;DHT22;4307;53.868;11.680;2022-09-25T05:38:48;13.30;99.90
8539;DHT22;4307;53.868;11.680;2022-09-25T05:41:15;13.30;99.90
8539;DHT22;4307;53.868;11.680;2022-09-25T05:43:43;13.30;99.90
8539;DHT22;4307;53.868;11.680;2022-09-25T05:46:12;13.30;99.90
8539;DHT22;4307;53.868;11.680;2022-09-25T05:48:39;13.30;99.90
8539;DHT22;4307;53.868;11.680;2022-09-25T05:51:07;13.30;99.90
8539;DHT22;4307;53.868;11.680;2022-09-25T05:53:34;13.30;99.90
8539;DHT22;4307;53.868;11.680;2022-09-25T05:56:02;13.30;99.90
8539;DHT22;4307;53.868;11.680;2022-09-25T05:58:30;13.30;99.90
8539;DHT22;4307;53.868;11.680;2022-09-25T06:00:59;13.30;99.90
8539;DHT22;4307;53.868;11.680;2022-09-25T06:03:26;13.30;99.90
8539;DHT22;4307;53.868;11.680;2022-09-25T06:05:54;13.30;99.90
8539;DHT22;4307;53.868;11.680;2022-09-25T06:08:22;13.30;99.90
8539;DHT22;4307;53.868;11.680;2022-09-25T06:10:51;13.30;99.90
8539;DHT22;4307;53.868;11.680;2022-09-25T06:13:19;13.30;99.90
8539;DHT22;4307;53.868;11.680;2022-09-25T06:15:46;13.40;99.90
8539;DHT22;4307;53.868;11.680;2022-09-25T06:18:15;13.40;99.90
8539;DHT22;4307;53.868;11.680;2022-09-25T06:20:41;13.50;99.90
8539;DHT22;4307;53.868;11.680;2022-09-25T06:23:08;13.50;99.90
8539;DHT22;4307;53.868;11.680;2022-09-25T06:25:36;13.50;99.90
8539;DHT22;4307;53.868;11.680;2022-09-25T06:28:03;13.50;99.90
8539;DHT22;4307;53.868;11.680;2022-09-25T06:30:32;13.50;99.90
8539;DHT22;4307;53.868;11.680;2022-09-25T06:32:59;13.40;99.90
8539;DHT22;4307;53.868;11.680;2022-09-25T06:35:26;13.40;99.90
8539;DHT22;4307;53.868;11.680;2022-09-25T06:37:56;13.40;99.90
8539;DHT22;4307;53.868;11.680;2022-09-25T06:40:23;13.40;99.90
8539;DHT22;4307;53.868;11.680;2022-09-25T06:42:55;13.40;99.90
8539;DHT22;4307;53.868;11.680;2022-09-25T06:45:22;13.40;99.90
8539;DHT22;4307;53.868;11.680;2022-09-25T06:47:48;13.40;99.90
8539;DHT22;4307;53.868;11.680;2022-09-25T06:50:15;13.30;99.90
8539;DHT22;4307;53.868;11.680;2022-09-25T06:52:42;13.30;99.90
8539;DHT22;4307;53.868;11.680;2022-09-25T06:55:09;13.30;99.90
8539;DHT22;4307;53.868;11.680;2022-09-25T06:57:36;13.30;99.90
8539;DHT22;4307;53.868;11.680;2022-09-25T07:00:05;13.30;99.90
8539;DHT22;4307;53.868;11.680;2022-09-25T07:02:32;13.30;99.90
8539;DHT22;4307;53.868;11.680;2022-09-25T07:05:16;13.40;99.90
8539;DHT22;4307;53.868;11.680;2022-09-25T07:07:44;13.30;99.90
8539;DHT22;4307;53.868;11.680;2022-09-25T07:10:10;13.30;99.90
8539;DHT22;4307;53.868;11.680;2022-09-25T07:12:37;13.30;99.90
8539;DHT22;4307;53.868;11.680;2022-09-25T07:15:08;13.30;99.90
8539;DHT22;4307;53.868;11.680;2022-09-25T07:17:36;13.30;99.90
8539;DHT22;4307;53.868;11.680;2022-09-25T07:20:03;13.20;99.90
8539;DHT22;4307;53.868;11.680;2022-09-25T07:22:30;13.20;99.90
8539;DHT22;4307;53.868;11.680;2022-09-25T07:24:57;13.20;99.90
8539;DHT22;4307;53.868;11.680;2022-09-25T07:27:23;13.20;99.90
8539;DHT22;4307;53.868;11.680;2022-09-25T07:29:50;13.20;99.90
8539;DHT22;4307;53.868;11.680;2022-09-25T07:32:18;13.20;99.90
8539;DHT22;4307;53.868;11.680;2022-09-25T07:34:45;13.20;99.90
8539;DHT22;4307;53.868;11.680;2022-09-25T07:37:14;13.10;99.90
8539;DHT22;4307;53.868;11.680;2022-09-25T07:39:41;13.20;99.90
8539;DHT22;4307;53.868;11.680;2022-09-25T07:42:07;13.20;99.90
8539;DHT22;4307;53.868;11.680;2022-09-25T07:44:34;13.20;99.90
8539;DHT22;4307;53.868;11.680;2022-09-25T07:47:01;13.20;99.90
8539;DHT22;4307;53.868;11.680;2022-09-25T07:49:29;13.20;99.90
8539;DHT22;4307;53.868;11.680;2022-09-25T07:51:56;13.10;99.90
8539;DHT22;4307;53.868;11.680;2022-09-25T07:54:23;13.10;99.90
8539;DHT22;4307;53.868;11.680;2022-09-25T07:56:50;13.10;99.90
8539;DHT22;4307;53.868;11.680;2022-09-25T07:59:17;13.10;99.90
8539;DHT22;4307;53.868;11.680;2022-09-25T08:01:43;13.10;99.90
8539;DHT22;4307;53.868;11.680;2022-09-25T08:04:11;13.20;99.90
8539;DHT22;4307;53.868;11.680;2022-09-25T08:06:39;13.20;99.90
8539;DHT22;4307;53.868;11.680;2022-09-25T08:09:05;13.10;99.90
8539;DHT22;4307;53.868;11.680;2022-09-25T08:11:33;13.10;99.90
8539;DHT22;4307;53.868;11.680;2022-09-25T08:14:00;13.10;99.90
8539;DHT22;4307;53.868;11.680;2022-09-25T08:16:27;13.10;99.90
8539;DHT22;4307;53.868;11.680;2022-09-25T08:18:54;13.10;99.90
8539;DHT22;4307;53.868;11.680;2022-09-25T08:21:20;13.10;99.90
8539;DHT22;4307;53.868;11.680;2022-09-25T08:23:50;13.20;99.90
8539;DHT22;4307;53.868;11.680;2022-09-25T08:26:17;13.20;99.90
8539;DHT22;4307;53.868;11.680;2022-09-25T08:28:45;13.20;99.90
8539;DHT22;4307;53.868;11.680;2022-09-25T08:31:12;13.20;99.90
8539;DHT22;4307;53.868;11.680;2022-09-25T08:33:43;13.20;99.90
8539;DHT22;4307;53.868;11.680;2022-09-25T08:36:10;13.30;99.90
8539;DHT22;4307;53.868;11.680;2022-09-25T08:38:36;13.30;99.90
8539;DHT22;4307;53.868;11.680;2022-09-25T08:41:06;13.40;99.90
8539;DHT22;4307;53.868;11.680;2022-09-25T08:43:39;13.40;99.90
8539;DHT22;4307;53.868;11.680;2022-09-25T08:46:14;13.50;99.90
8539;DHT22;4307;53.868;11.680;2022-09-25T08:49:01;13.50;99.90
8539;DHT22;4307;53.868;11.680;2022-09-25T08:51:33;13.50;99.90
8539;DHT22;4307;53.868;11.680;2022-09-25T08:54:02;13.60;99.90
8539;DHT22;4307;53.868;11.680;2022-09-25T08:56:32;13.60;99.90
8539;DHT22;4307;53.868;11.680;2022-09-25T08:59:03;13.60;99.90
8539;DHT22;4307;53.868;11.680;2022-09-25T09:01:41;13.50;99.90
8539;DHT22;4307;53.868;11.680;2022-09-25T09:04:14;13.50;99.90
8539;DHT22;4307;53.868;11.680;2022-09-25T09:06:46;13.50;99.90
8539;DHT22;4307;53.868;11.680;2022-09-25T09:09:18;13.50;99.90
8539;DHT22;4307;53.868;11.680;2022-09-25T09:11:51;13.40;99.90
8539;DHT22;4307;53.868;11.680;2022-09-25T09:14:19;13.40;99.90
8539;DHT22;4307;53.868;11.680;2022-09-25T09:16:50;13.40;99.90
8539;DHT22;4307;53.868;11.680;2022-09-25T09:19:21;13.30;99.90
8539;DHT22;4307;53.868;11.680;2022-09-25T09:21:53;13.30;99.90
8539;DHT22;4307;53.868;11.680;2022-09-25T09:24:26;13.30;99.90
8539;DHT22;4307;53.868;11.680;2022-09-25T09:27:18;13.30;99.90
8539;DHT22;4307;53.868;11.680;2022-09-25T09:29:55;13.40;99.90
8539;DHT22;4307;53.868;11.680;2022-09-25T09:32:34;13.40;99.90
8539;DHT22;4307;53.868;11.680;2022-09-25T09:35:12;13.40;99.90
8539;DHT22;4307;53.868;11.680;2022-09-25T09:37:48;13.50;99.90
8539;DHT22;4307;53.868;11.680;2022-09-25T09:40:24;13.50;99.90
8539;DHT22;4307;53.868;11.680;2022-09-25T09:43:02;13.60;99.90
8539;DHT22;4307;53.868;11.680;2022-09-25T09:45:37;13.60;99.90
8539;DHT22;4307;53.868;11.680;2022-09-25T09:48:13;13.70;99.90
8539;DHT22;4307;53.868;11.680;2022-09-25T09:50:43;13.80;99.90
8539;DHT22;4307;53.868;11.680;2022-09-25T09:53:20;13.90;99.90
8539;DHT22;4307;53.868;11.680;2022-09-25T09:55:55;13.90;99.90
8539;DHT22;4307;53.868;11.680;2022-09-25T09:58:26;13.90;99.90
8539;DHT22;4307;53.868;11.680;2022-09-25T10:00:54;14.00;99.90
8539;DHT22;4307;53.868;11.680;2022-09-25T10:03:24;14.00;99.90
8539;DHT22;4307;53.868;11.680;2022-09-25T10:05:55;14.10;99.90
8539;DHT22;4307;53.868;11.680;2022-09-25T10:08:22;14.20;99.90
8539;DHT22;4307;53.868;11.680;2022-09-25T10:10:51;14.20;99.90
8539;DHT22;4307;53.868;11.680;2022-09-25T10:13:23;14.20;99.90
8539;DHT22;4307;53.868;11.680;2022-09-25T10:15:54;14.30;99.90
8539;DHT22;4307;53.868;11.680;2022-09-25T10:18:24;14.30;99.90
8539;DHT22;4307;53.868;11.680;2022-09-25T10:20:56;14.30;99.90
8539;DHT22;4307;53.868;11.680;2022-09-25T10:23:32;14.40;99.90
8539;DHT22;4307;53.868;11.680;2022-09-25T10:26:00;14.50;99.90
8539;DHT22;4307;53.868;11.680;2022-09-25T10:28:31;14.50;99.90
8539;DHT22;4307;53.868;11.680;2022-09-25T10:31:00;14.60;99.90
8539;DHT22;4307;53.868;11.680;2022-09-25T10:33:29;14.60;99.90
8539;DHT22;4307;53.868;11.680;2022-09-25T10:35:56;14.70;99.90
8539;DHT22;4307;53.868;11.680;2022-09-25T10:38:37;14.70;99.90
8539;DHT22;4307;53.868;11.680;2022-09-25T10:41:09;14.60;99.90
8539;DHT22;4307;53.868;11.680;2022-09-25T10:43:50;14.60;99.90
8539;DHT22;4307;53.868;11.680;2022-09-25T10:46:26;14.60;99.90
8539;DHT22;4307;53.868;11.680;2022-09-25T10:49:17;14.60;99.90
8539;DHT22;4307;53.868;11.680;2022-09-25T10:52:04;14.70;99.90
8539;DHT22;4307;53.868;11.680;2022-09-25T10:54:31;14.70;99.90
8539;DHT22;4307;53.868;11.680;2022-09-25T10:56:59;14.80;99.90
8539;DHT22;4307;53.868;11.680;2022-09-25T10:59:28;14.80;99.90
8539;DHT22;4307;53.868;11.680;2022-09-25T11:01:55;14.90;99.90
8539;DHT22;4307;53.868;11.680;2022-09-25T11:04:23;15.00;99.90
8539;DHT22;4307;53.868;11.680;2022-09-25T11:06:55;15.00;99.90
8539;DHT22;4307;53.868;11.680;2022-09-25T11:09:24;15.10;99.90
8539;DHT22;4307;53.868;11.680;2022-09-25T11:11:53;15.10;99.90
8539;DHT22;4307;53.868;11.680;2022-09-25T11:14:32;15.10;99.90
8539;DHT22;4307;53.868;11.680;2022-09-25T11:17:00;15.00;99.90
8539;DHT22;4307;53.868;11.680;2022-09-25T11:19:31;15.00;99.90
8539;DHT22;4307;53.868;11.680;2022-09-25T11:22:04;15.00;99.90
8539;DHT22;4307;53.868;11.680;2022-09-25T11:24:40;15.00;99.90
8539;DHT22;4307;53.868;11.680;2022-09-25T11:27:13;15.00;99.90
8539;DHT22;4307;53.868;11.680;2022-09-25T11:29:47;14.90;99.90
8539;DHT22;4307;53.868;11.680;2022-09-25T11:32:21;14.90;99.90
8539;DHT22;4307;53.868;11.680;2022-09-25T11:35:01;14.90;99.90
8539;DHT22;4307;53.868;11.680;2022-09-25T11:37:34;14.90;99.90
8539;DHT22;4307;53.868;11.680;2022-09-25T11:40:26;14.90;99.90
8539;DHT22;4307;53.868;11.680;2022-09-25T11:43:15;14.90;99.90
8539;DHT22;4307;53.868;11.680;2022-09-25T11:45:48;14.90;99.90
8539;DHT22;4307;53.868;11.680;2022-09-25T11:48:23;14.90;99.90
8539;DHT22;4307;53.868;11.680;2022-09-25T11:50:56;14.90;99.90
8539;DHT22;4307;53.868;11.680;2022-09-25T11:53:31;14.90;99.90
8539;DHT22;4307;53.868;11.680;2022-09-25T11:56:14;14.90;99.90
8539;DHT22;4307;53.868;11.680;2022-09-25T11:58:55;14.90;99.90
8539;DHT22;4307;53.868;11.680;2022-09-25T12:01:31;15.00;99.90
8539;DHT22;4307;53.868;11.680;2022-09-25T12:04:19;15.00;99.90
8539;DHT22;4307;53.868;11.680;2022-09-25T12:07:02;15.00;99.90
8539;DHT22;4307;53.868;11.680;2022-09-25T12:12:32;15.20;99.90
8539;DHT22;4307;53.868;11.680;2022-09-25T12:15:12;15.30;99.90
8539;DHT22;4307;53.868;11.680;2022-09-25T12:17:50;15.30;99.90
8539;DHT22;4307;53.868;11.680;2022-09-25T12:20:23;15.50;99.90
8539;DHT22;4307;53.868;11.680;2022-09-25T12:23:01;15.50;99.90
8539;DHT22;4307;53.868;11.680;2022-09-25T12:25:39;15.50;99.90
8539;DHT22;4307;53.868;11.680;2022-09-25T12:28:18;15.40;99.90
8539;DHT22;4307;53.868;11.680;2022-09-25T12:30:56;15.40;99.90
8539;DHT22;4307;53.868;11.680;2022-09-25T12:33:31;15.40;99.90
8539;DHT22;4307;53.868;11.680;2022-09-25T12:36:04;15.50;99.90
8539;DHT22;4307;53.868;11.680;2022-09-25T12:38:39;15.50;99.90
8539;DHT22;4307;53.868;11.680;2022-09-25T12:41:11;15.50;99.90
8539;DHT22;4307;53.868;11.680;2022-09-25T12:43:45;15.40;99.90
8539;DHT22;4307;53.868;11.680;2022-09-25T12:46:19;15.50;99.90
8539;DHT22;4307;53.868;11.680;2022-09-25T12:48:51;15.50;99.90
8539;DHT22;4307;53.868;11.680;2022-09-25T12:51:23;15.40;99.90
8539;DHT22;4307;53.868;11.680;2022-09-25T12:53:54;15.40;99.90
8539;DHT22;4307;53.868;11.680;2022-09-25T12:56:25;15.40;99.90
8539;DHT22;4307;53.868;11.680;2022-09-25T12:59:00;15.40;99.90
8539;DHT22;4307;53.868;11.680;2022-09-25T13:01:34;15.50;99.90
8539;DHT22;4307;53.868;11.680;2022-09-25T13:04:12;15.50;99.90
8539;DHT22;4307;53.868;11.680;2022-09-25T13:06:53;15.50;99.90
8539;DHT22;4307;53.868;11.680;2022-09-25T13:09:29;15.60;99.90
8539;DHT22;4307;53.868;11.680;2022-09-25T13:12:01;15.60;99.90
8539;DHT22;4307;53.868;11.680;2022-09-25T13:14:35;15.60;99.90
8539;DHT22;4307;53.868;11.680;2022-09-25T13:17:04;15.70;99.90
8539;DHT22;4307;53.868;11.680;2022-09-25T13:19:33;15.70;99.90
8539;DHT22;4307;53.868;11.680;2022-09-25T13:22:02;15.70;99.90
8539;DHT22;4307;53.868;11.680;2022-09-25T13:24:35;15.80;99.90
8539;DHT22;4307;53.868;11.680;2022-09-25T13:27:04;15.80;99.90
8539;DHT22;4307;53.868;11.680;2022-09-25T13:29:33;15.90;99.90
8539;DHT22;4307;53.868;11.680;2022-09-25T13:32:06;16.00;99.90
8539;DHT22;4307;53.868;11.680;2022-09-25T13:34:37;16.10;99.90
8539;DHT22;4307;53.868;11.680;2022-09-25T13:37:07;16.10;99.90
8539;DHT22;4307;53.868;11.680;2022-09-25T13:39:36;16.20;99.90
8539;DHT22;4307;53.868;11.680;2022-09-25T13:42:24;16.30;99.90
8539;DHT22;4307;53.868;11.680;2022-09-25T13:45:04;16.30;99.90
8539;DHT22;4307;53.868;11.680;2022-09-25T13:47:58;16.40;99.90
8539;DHT22;4307;53.868;11.680;2022-09-25T13:50:29;16.40;99.90
8539;DHT22;4307;53.868;11.680;2022-09-25T13:56:05;16.50;99.90
8539;DHT22;4307;53.868;11.680;2022-09-25T13:58:59;16.50;99.90
8539;DHT22;4307;53.868;11.680;2022-09-25T14:01:33;16.50;99.90
8539;DHT22;4307;53.868;11.680;2022-09-25T14:04:07;16.50;99.90
8539;DHT22;4307;53.868;11.680;2022-09-25T14:06:36;16.50;99.90
8539;DHT22;4307;53.868;11.680;2022-09-25T14:09:08;16.40;99.90
8539;DHT22;4307;53.868;11.680;2022-09-25T14:11:36;16.30;99.90
8539;DHT22;4307;53.868;11.680;2022-09-25T14:14:06;16.30;99.90
8539;DHT22;4307;53.868;11.680;2022-09-25T14:16:37;16.40;99.90
8539;DHT22;4307;53.868;11.680;2022-09-25T14:19:06;16.40;99.90
8539;DHT22;4307;53.868;11.680;2022-09-25T14:21:36;16.30;99.90
8539;DHT22;4307;53.868;11.680;2022-09-25T14:24:11;16.20;99.90
8539;DHT22;4307;53.868;11.680;2022-09-25T14:26:44;16.20;99.90
8539;DHT22;4307;53.868;11.680;2022-09-25T14:29:15;16.20;99.90
8539;DHT22;4307;53.868;11.680;2022-09-25T14:31:48;16.10;99.90
8539;DHT22;4307;53.868;11.680;2022-09-25T14:34:37;16.10;99.90
8539;DHT22;4307;53.868;11.680;2022-09-25T14:37:20;16.00;99.90
8539;DHT22;4307;53.868;11.680;2022-09-25T14:40:00;16.00;99.90
8539;DHT22;4307;53.868;11.680;2022-09-25T14:42:53;16.00;99.90
8539;DHT22;4307;53.868;11.680;2022-09-25T14:48:29;16.00;99.90
8539;DHT22;4307;53.868;11.680;2022-09-25T14:51:01;16.00;99.90
8539;DHT22;4307;53.868;11.680;2022-09-25T14:53:31;16.00;99.90
8539;DHT22;4307;53.868;11.680;2022-09-25T14:55:59;16.10;99.90
8539;DHT22;4307;53.868;11.680;2022-09-25T14:58:29;16.20;99.90
8539;DHT22;4307;53.868;11.680;2022-09-25T15:00:59;16.20;99.90
8539;DHT22;4307;53.868;11.680;2022-09-25T15:03:30;16.30;99.90
8539;DHT22;4307;53.868;11.680;2022-09-25T15:06:00;16.30;99.90
8539;DHT22;4307;53.868;11.680;2022-09-25T15:08:34;16.30;99.90
8539;DHT22;4307;53.868;11.680;2022-09-25T15:11:08;16.30;99.90
8539;DHT22;4307;53.868;11.680;2022-09-25T15:13:35;16.20;99.90
8539;DHT22;4307;53.868;11.680;2022-09-25T15:16:02;16.10;99.90
8539;DHT22;4307;53.868;11.680;2022-09-25T15:18:51;16.10;99.90
8539;DHT22;4307;53.868;11.680;2022-09-25T15:21:23;16.00;99.90
8539;DHT22;4307;53.868;11.680;2022-09-25T15:23:52;16.00;99.90
8539;DHT22;4307;53.868;11.680;2022-09-25T15:26:20;15.90;99.90
8539;DHT22;4307;53.868;11.680;2022-09-25T15:28:47;15.80;99.90
8539;DHT22;4307;53.868;11.680;2022-09-25T15:31:16;15.80;99.90
8539;DHT22;4307;53.868;11.680;2022-09-25T15:33:43;15.80;99.90
8539;DHT22;4307;53.868;11.680;2022-09-25T15:36:16;15.80;99.90
8539;DHT22;4307;53.868;11.680;2022-09-25T15:38:52;15.80;99.90
8539;DHT22;4307;53.868;11.680;2022-09-25T15:41:20;15.80;99.90
8539;DHT22;4307;53.868;11.680;2022-09-25T15:43:48;15.80;99.90
8539;DHT22;4307;53.868;11.680;2022-09-25T15:46:35;15.80;99.90
8539;DHT22;4307;53.868;11.680;2022-09-25T15:49:03;15.80;99.90
8539;DHT22;4307;53.868;11.680;2022-09-25T15:51:32;15.80;99.90
8539;DHT22;4307;53.868;11.680;2022-09-25T15:54:03;15.80;99.90
8539;DHT22;4307;53.868;11.680;2022-09-25T15:56:37;15.70;99.90
8539;DHT22;4307;53.868;11.680;2022-09-25T15:59:15;15.70;99.90
8539;DHT22;4307;53.868;11.680;2022-09-25T16:01:42;15.70;99.90
8539;DHT22;4307;53.868;11.680;2022-09-25T16:04:27;15.70;99.90
8539;DHT22;4307;53.868;11.680;2022-09-25T16:07:27;15.70;99.90
8539;DHT22;4307;53.868;11.680;2022-09-25T16:09:57;15.70;99.90
8539;DHT22;4307;53.868;11.680;2022-09-25T16:12:29;15.70;99.90
8539;DHT22;4307;53.868;11.680;2022-09-25T16:18:23;15.60;99.90
8539;DHT22;4307;53.868;11.680;2022-09-25T16:20:57;15.60;99.90
8539;DHT22;4307;53.868;11.680;2022-09-25T16:23:32;15.50;99.90
8539;DHT22;4307;53.868;11.680;2022-09-25T16:26:00;15.40;99.90